sensor_id;sensor_type;location;lat;lon;timestamp;P1;durP1;ratioP1;P2;durP2;ratioP2
39772;SDS011;25451;51.960;6.250;2022-12-16T00:01:33;25.43;;;10.90;;
39772;SDS011;25451;51.960;6.250;2022-12-16T00:03:58;23.57;;;10.77;;
39772;SDS011;25451;51.960;6.250;2022-12-16T00:06:29;24.13;;;11.03;;
39772;SDS011;25451;51.960;6.250;2022-12-16T00:08:56;24.63;;;10.45;;
39772;SDS011;25451;51.960;6.250;2022-12-16T00:11:22;29.27;;;11.63;;
39772;SDS011;25451;51.960;6.250;2022-12-16T00:13:47;30.37;;;11.30;;
39772;SDS011;25451;51.960;6.250;2022-12-16T00:16:13;24.07;;;10.73;;
39772;SDS011;25451;51.960;6.250;2022-12-16T00:18:40;24.13;;;11.00;;
39772;SDS011;25451;51.960;6.250;2022-12-16T00:21:06;23.60;;;9.80;;
39772;SDS011;25451;51.960;6.250;2022-12-16T00:23:32;22.27;;;10.30;;
39772;SDS011;25451;51.960;6.250;2022-12-16T00:25:59;23.13;;;10.20;;
39772;SDS011;25451;51.960;6.250;2022-12-16T00:28:25;25.08;;;11.32;;
39772;SDS011;25451;51.960;6.250;2022-12-16T00:30:51;22.10;;;10.43;;
39772;SDS011;25451;51.960;6.250;2022-12-16T00:33:18;22.38;;;10.15;;
39772;SDS011;25451;51.960;6.250;2022-12-16T00:35:45;21.45;;;9.77;;
39772;SDS011;25451;51.960;6.250;2022-12-16T00:38:12;21.07;;;10.20;;
39772;SDS011;25451;51.960;6.250;2022-12-16T00:40:38;22.38;;;10.07;;
39772;SDS011;25451;51.960;6.250;2022-12-16T00:43:03;21.63;;;9.90;;
39772;SDS011;25451;51.960;6.250;2022-12-16T00:45:29;23.10;;;10.33;;
39772;SDS011;25451;51.960;6.250;2022-12-16T00:47:55;21.52;;;9.73;;
39772;SDS011;25451;51.960;6.250;2022-12-16T00:50:20;24.23;;;11.17;;
39772;SDS011;25451;51.960;6.250;2022-12-16T00:52:46;24.80;;;9.43;;
39772;SDS011;25451;51.960;6.250;2022-12-16T00:55:12;21.70;;;10.10;;
39772;SDS011;25451;51.960;6.250;2022-12-16T00:57:38;24.73;;;9.68;;
39772;SDS011;25451;51.960;6.250;2022-12-16T01:00:03;22.53;;;10.33;;
39772;SDS011;25451;51.960;6.250;2022-12-16T01:02:30;27.83;;;11.07;;
39772;SDS011;25451;51.960;6.250;2022-12-16T01:04:55;22.40;;;10.80;;
39772;SDS011;25451;51.960;6.250;2022-12-16T01:07:21;21.52;;;9.20;;
39772;SDS011;25451;51.960;6.250;2022-12-16T01:09:46;19.73;;;9.40;;
39772;SDS011;25451;51.960;6.250;2022-12-16T01:12:11;20.93;;;9.50;;
39772;SDS011;25451;51.960;6.250;2022-12-16T01:14:37;23.20;;;9.67;;
39772;SDS011;25451;51.960;6.250;2022-12-16T01:17:02;20.17;;;10.10;;
39772;SDS011;25451;51.960;6.250;2022-12-16T01:19:27;26.47;;;10.27;;
39772;SDS011;25451;51.960;6.250;2022-12-16T01:21:53;21.53;;;10.17;;
39772;SDS011;25451;51.960;6.250;2022-12-16T01:24:18;21.30;;;10.53;;
39772;SDS011;25451;51.960;6.250;2022-12-16T01:26:43;22.87;;;9.53;;
39772;SDS011;25451;51.960;6.250;2022-12-16T01:29:09;20.53;;;9.60;;
39772;SDS011;25451;51.960;6.250;2022-12-16T01:31:34;22.90;;;9.90;;
39772;SDS011;25451;51.960;6.250;2022-12-16T01:33:59;23.90;;;10.48;;
39772;SDS011;25451;51.960;6.250;2022-12-16T01:36:24;23.35;;;10.65;;
39772;SDS011;25451;51.960;6.250;2022-12-16T01:38:50;21.20;;;10.52;;
39772;SDS011;25451;51.960;6.250;2022-12-16T01:41:16;26.40;;;10.33;;
39772;SDS011;25451;51.960;6.250;2022-12-16T01:43:42;24.20;;;10.52;;
39772;SDS011;25451;51.960;6.250;2022-12-16T01:48:57;24.52;;;10.30;;
39772;SDS011;25451;51.960;6.250;2022-12-16T01:51:27;20.77;;;9.73;;
39772;SDS011;25451;51.960;6.250;2022-12-16T01:54:00;23.15;;;9.93;;
39772;SDS011;25451;51.960;6.250;2022-12-16T01:56:33;23.95;;;10.40;;
39772;SDS011;25451;51.960;6.250;2022-12-16T01:59:02;24.50;;;10.48;;
39772;SDS011;25451;51.960;6.250;2022-12-16T02:01:27;21.73;;;10.23;;
39772;SDS011;25451;51.960;6.250;2022-12-16T02:03:53;24.33;;;10.35;;
39772;SDS011;25451;51.960;6.250;2022-12-16T02:06:22;23.00;;;9.93;;
39772;SDS011;25451;51.960;6.250;2022-12-16T02:08:47;24.10;;;10.75;;
39772;SDS011;25451;51.960;6.250;2022-12-16T02:16:38;23.25;;;10.35;;
39772;SDS011;25451;51.960;6.250;2022-12-16T02:19:34;22.92;;;10.50;;
39772;SDS011;25451;51.960;6.250;2022-12-16T02:22:33;19.05;;;9.18;;
39772;SDS011;25451;51.960;6.250;2022-12-16T02:37:04;19.85;;;10.23;;
39772;SDS011;25451;51.960;6.250;2022-12-16T02:39:54;23.75;;;9.95;;
39772;SDS011;25451;51.960;6.250;2022-12-16T02:42:30;21.93;;;9.93;;
39772;SDS011;25451;51.960;6.250;2022-12-16T02:45:10;23.15;;;10.05;;
39772;SDS011;25451;51.960;6.250;2022-12-16T02:47:40;27.13;;;10.80;;
39772;SDS011;25451;51.960;6.250;2022-12-16T02:50:08;19.53;;;9.63;;
39772;SDS011;25451;51.960;6.250;2022-12-16T02:52:42;23.55;;;10.90;;
39772;SDS011;25451;51.960;6.250;2022-12-16T02:55:07;27.43;;;11.10;;
39772;SDS011;25451;51.960;6.250;2022-12-16T03:00:10;26.17;;;11.27;;
39772;SDS011;25451;51.960;6.250;2022-12-16T03:05:14;24.80;;;10.93;;
39772;SDS011;25451;51.960;6.250;2022-12-16T03:07:45;26.70;;;11.63;;
39772;SDS011;25451;51.960;6.250;2022-12-16T03:10:15;23.23;;;9.60;;
39772;SDS011;25451;51.960;6.250;2022-12-16T03:12:44;25.10;;;11.07;;
39772;SDS011;25451;51.960;6.250;2022-12-16T03:15:10;28.02;;;11.93;;
39772;SDS011;25451;51.960;6.250;2022-12-16T03:17:39;26.23;;;10.98;;
39772;SDS011;25451;51.960;6.250;2022-12-16T03:20:06;25.88;;;11.10;;
39772;SDS011;25451;51.960;6.250;2022-12-16T03:22:36;26.33;;;11.10;;
39772;SDS011;25451;51.960;6.250;2022-12-16T03:25:06;23.97;;;10.37;;
39772;SDS011;25451;51.960;6.250;2022-12-16T03:32:25;25.57;;;10.90;;
39772;SDS011;25451;51.960;6.250;2022-12-16T03:34:55;24.30;;;10.90;;
39772;SDS011;25451;51.960;6.250;2022-12-16T03:37:26;26.10;;;11.10;;
39772;SDS011;25451;51.960;6.250;2022-12-16T03:39:55;24.60;;;11.20;;
39772;SDS011;25451;51.960;6.250;2022-12-16T03:42:24;25.07;;;11.23;;
39772;SDS011;25451;51.960;6.250;2022-12-16T03:44:50;25.17;;;11.63;;
39772;SDS011;25451;51.960;6.250;2022-12-16T03:47:16;31.90;;;11.73;;
39772;SDS011;25451;51.960;6.250;2022-12-16T03:49:41;26.57;;;10.67;;
39772;SDS011;25451;51.960;6.250;2022-12-16T03:52:07;28.17;;;11.00;;
39772;SDS011;25451;51.960;6.250;2022-12-16T03:54:32;27.43;;;10.80;;
39772;SDS011;25451;51.960;6.250;2022-12-16T03:56:57;24.10;;;10.70;;
39772;SDS011;25451;51.960;6.250;2022-12-16T03:59:23;25.80;;;10.83;;
39772;SDS011;25451;51.960;6.250;2022-12-16T04:01:49;25.00;;;11.77;;
39772;SDS011;25451;51.960;6.250;2022-12-16T04:04:15;27.73;;;10.80;;
39772;SDS011;25451;51.960;6.250;2022-12-16T04:06:41;25.35;;;10.95;;
39772;SDS011;25451;51.960;6.250;2022-12-16T04:09:07;27.27;;;11.57;;
39772;SDS011;25451;51.960;6.250;2022-12-16T04:11:32;28.48;;;12.10;;
39772;SDS011;25451;51.960;6.250;2022-12-16T04:14:16;27.67;;;12.23;;
39772;SDS011;25451;51.960;6.250;2022-12-16T04:17:00;28.02;;;12.07;;
39772;SDS011;25451;51.960;6.250;2022-12-16T04:19:44;26.40;;;11.80;;
39772;SDS011;25451;51.960;6.250;2022-12-16T04:22:33;28.88;;;10.90;;
39772;SDS011;25451;51.960;6.250;2022-12-16T04:25:21;26.25;;;10.65;;
39772;SDS011;25451;51.960;6.250;2022-12-16T04:27:53;23.80;;;10.97;;
39772;SDS011;25451;51.960;6.250;2022-12-16T04:30:19;26.27;;;11.70;;
39772;SDS011;25451;51.960;6.250;2022-12-16T04:32:45;29.55;;;10.65;;
39772;SDS011;25451;51.960;6.250;2022-12-16T04:35:43;26.05;;;10.75;;
39772;SDS011;25451;51.960;6.250;2022-12-16T04:38:28;22.45;;;10.90;;
39772;SDS011;25451;51.960;6.250;2022-12-16T04:41:12;21.73;;;10.37;;
39772;SDS011;25451;51.960;6.250;2022-12-16T04:43:57;28.55;;;11.20;;
39772;SDS011;25451;51.960;6.250;2022-12-16T04:46:41;25.30;;;11.13;;
39772;SDS011;25451;51.960;6.250;2022-12-16T04:49:25;20.63;;;10.25;;
39772;SDS011;25451;51.960;6.250;2022-12-16T04:52:08;25.35;;;11.07;;
39772;SDS011;25451;51.960;6.250;2022-12-16T04:54:52;21.80;;;10.17;;
39772;SDS011;25451;51.960;6.250;2022-12-16T04:57:37;23.33;;;10.55;;
39772;SDS011;25451;51.960;6.250;2022-12-16T05:00:21;28.30;;;11.52;;
39772;SDS011;25451;51.960;6.250;2022-12-16T05:03:05;22.50;;;10.75;;
39772;SDS011;25451;51.960;6.250;2022-12-16T05:05:49;26.00;;;10.60;;
39772;SDS011;25451;51.960;6.250;2022-12-16T05:08:33;24.13;;;10.47;;
39772;SDS011;25451;51.960;6.250;2022-12-16T05:11:16;22.65;;;9.80;;
39772;SDS011;25451;51.960;6.250;2022-12-16T05:14:00;25.48;;;10.88;;
39772;SDS011;25451;51.960;6.250;2022-12-16T05:16:44;23.42;;;11.00;;
39772;SDS011;25451;51.960;6.250;2022-12-16T05:19:28;25.50;;;10.80;;
39772;SDS011;25451;51.960;6.250;2022-12-16T05:22:12;27.80;;;10.87;;
39772;SDS011;25451;51.960;6.250;2022-12-16T05:24:56;22.95;;;10.45;;
39772;SDS011;25451;51.960;6.250;2022-12-16T05:27:40;28.20;;;11.02;;
39772;SDS011;25451;51.960;6.250;2022-12-16T05:30:24;31.02;;;11.23;;
39772;SDS011;25451;51.960;6.250;2022-12-16T05:33:08;23.40;;;10.43;;
39772;SDS011;25451;51.960;6.250;2022-12-16T05:35:52;29.10;;;10.93;;
39772;SDS011;25451;51.960;6.250;2022-12-16T05:38:35;23.75;;;9.75;;
39772;SDS011;25451;51.960;6.250;2022-12-16T05:41:19;22.40;;;11.07;;
39772;SDS011;25451;51.960;6.250;2022-12-16T05:44:03;29.88;;;11.45;;
39772;SDS011;25451;51.960;6.250;2022-12-16T05:46:48;26.35;;;11.05;;
39772;SDS011;25451;51.960;6.250;2022-12-16T05:49:31;25.53;;;10.67;;
39772;SDS011;25451;51.960;6.250;2022-12-16T05:52:15;27.58;;;11.75;;
39772;SDS011;25451;51.960;6.250;2022-12-16T05:54:59;27.10;;;10.80;;
39772;SDS011;25451;51.960;6.250;2022-12-16T05:57:47;23.13;;;10.38;;
39772;SDS011;25451;51.960;6.250;2022-12-16T06:00:32;27.65;;;10.55;;
39772;SDS011;25451;51.960;6.250;2022-12-16T06:03:15;28.23;;;11.50;;
39772;SDS011;25451;51.960;6.250;2022-12-16T06:05:59;19.70;;;10.18;;
39772;SDS011;25451;51.960;6.250;2022-12-16T06:08:44;27.48;;;11.75;;
39772;SDS011;25451;51.960;6.250;2022-12-16T06:11:27;26.73;;;11.93;;
39772;SDS011;25451;51.960;6.250;2022-12-16T06:14:11;27.83;;;10.57;;
39772;SDS011;25451;51.960;6.250;2022-12-16T06:16:55;27.77;;;11.97;;
39772;SDS011;25451;51.960;6.250;2022-12-16T06:19:39;30.50;;;11.65;;
39772;SDS011;25451;51.960;6.250;2022-12-16T06:22:22;29.35;;;10.73;;
39772;SDS011;25451;51.960;6.250;2022-12-16T06:25:07;26.23;;;11.73;;
39772;SDS011;25451;51.960;6.250;2022-12-16T06:27:51;27.27;;;11.25;;
39772;SDS011;25451;51.960;6.250;2022-12-16T06:30:35;23.60;;;11.40;;
39772;SDS011;25451;51.960;6.250;2022-12-16T06:33:20;26.90;;;11.27;;
39772;SDS011;25451;51.960;6.250;2022-12-16T06:36:04;26.70;;;11.02;;
39772;SDS011;25451;51.960;6.250;2022-12-16T06:38:48;27.38;;;11.75;;
39772;SDS011;25451;51.960;6.250;2022-12-16T06:41:32;25.88;;;10.60;;
39772;SDS011;25451;51.960;6.250;2022-12-16T06:44:16;25.87;;;11.33;;
39772;SDS011;25451;51.960;6.250;2022-12-16T06:47:16;27.02;;;10.73;;
39772;SDS011;25451;51.960;6.250;2022-12-16T06:50:00;25.00;;;11.25;;
39772;SDS011;25451;51.960;6.250;2022-12-16T06:52:44;27.95;;;11.20;;
39772;SDS011;25451;51.960;6.250;2022-12-16T06:55:28;24.67;;;10.50;;
39772;SDS011;25451;51.960;6.250;2022-12-16T06:58:13;26.53;;;11.00;;
39772;SDS011;25451;51.960;6.250;2022-12-16T07:00:56;29.98;;;11.68;;
39772;SDS011;25451;51.960;6.250;2022-12-16T07:03:40;26.10;;;10.75;;
39772;SDS011;25451;51.960;6.250;2022-12-16T07:06:24;30.77;;;12.27;;
39772;SDS011;25451;51.960;6.250;2022-12-16T07:09:08;26.45;;;10.90;;
39772;SDS011;25451;51.960;6.250;2022-12-16T07:11:52;28.07;;;11.23;;
39772;SDS011;25451;51.960;6.250;2022-12-16T07:14:36;28.23;;;11.20;;
39772;SDS011;25451;51.960;6.250;2022-12-16T07:17:20;25.98;;;11.05;;
39772;SDS011;25451;51.960;6.250;2022-12-16T07:20:04;26.52;;;11.13;;
39772;SDS011;25451;51.960;6.250;2022-12-16T07:22:48;28.38;;;11.30;;
39772;SDS011;25451;51.960;6.250;2022-12-16T07:25:32;24.83;;;10.97;;
39772;SDS011;25451;51.960;6.250;2022-12-16T07:28:16;27.58;;;10.30;;
39772;SDS011;25451;51.960;6.250;2022-12-16T07:31:00;28.73;;;11.27;;
39772;SDS011;25451;51.960;6.250;2022-12-16T07:33:44;26.20;;;10.93;;
39772;SDS011;25451;51.960;6.250;2022-12-16T07:36:28;22.42;;;10.35;;
39772;SDS011;25451;51.960;6.250;2022-12-16T07:39:12;25.90;;;10.73;;
39772;SDS011;25451;51.960;6.250;2022-12-16T07:41:56;22.73;;;8.98;;
39772;SDS011;25451;51.960;6.250;2022-12-16T07:44:40;23.42;;;10.95;;
39772;SDS011;25451;51.960;6.250;2022-12-16T07:47:24;28.80;;;10.82;;
39772;SDS011;25451;51.960;6.250;2022-12-16T07:50:07;26.98;;;11.23;;
39772;SDS011;25451;51.960;6.250;2022-12-16T07:52:53;23.37;;;11.47;;
39772;SDS011;25451;51.960;6.250;2022-12-16T07:55:37;27.40;;;11.43;;
39772;SDS011;25451;51.960;6.250;2022-12-16T07:58:21;25.77;;;10.63;;
39772;SDS011;25451;51.960;6.250;2022-12-16T08:01:05;29.15;;;11.55;;
39772;SDS011;25451;51.960;6.250;2022-12-16T08:03:49;29.90;;;11.38;;
39772;SDS011;25451;51.960;6.250;2022-12-16T08:06:33;27.83;;;11.10;;
39772;SDS011;25451;51.960;6.250;2022-12-16T08:09:17;29.40;;;11.63;;
39772;SDS011;25451;51.960;6.250;2022-12-16T08:12:01;27.33;;;11.88;;
39772;SDS011;25451;51.960;6.250;2022-12-16T08:14:45;26.75;;;10.93;;
39772;SDS011;25451;51.960;6.250;2022-12-16T08:17:29;25.40;;;10.93;;
39772;SDS011;25451;51.960;6.250;2022-12-16T08:20:13;22.97;;;9.97;;
39772;SDS011;25451;51.960;6.250;2022-12-16T08:22:57;23.60;;;11.32;;
39772;SDS011;25451;51.960;6.250;2022-12-16T08:25:41;25.33;;;10.85;;
39772;SDS011;25451;51.960;6.250;2022-12-16T08:28:24;24.77;;;10.73;;
39772;SDS011;25451;51.960;6.250;2022-12-16T08:31:08;26.38;;;11.00;;
39772;SDS011;25451;51.960;6.250;2022-12-16T08:33:52;23.70;;;9.73;;
39772;SDS011;25451;51.960;6.250;2022-12-16T08:36:36;24.67;;;10.93;;
39772;SDS011;25451;51.960;6.250;2022-12-16T08:39:20;25.27;;;11.57;;
39772;SDS011;25451;51.960;6.250;2022-12-16T08:42:06;25.08;;;10.27;;
39772;SDS011;25451;51.960;6.250;2022-12-16T08:44:49;28.23;;;11.25;;
39772;SDS011;25451;51.960;6.250;2022-12-16T08:47:33;29.37;;;10.53;;
39772;SDS011;25451;51.960;6.250;2022-12-16T08:50:17;30.27;;;12.15;;
39772;SDS011;25451;51.960;6.250;2022-12-16T08:53:01;32.45;;;12.75;;
39772;SDS011;25451;51.960;6.250;2022-12-16T08:55:45;28.83;;;11.95;;
39772;SDS011;25451;51.960;6.250;2022-12-16T08:58:29;22.95;;;10.90;;
39772;SDS011;25451;51.960;6.250;2022-12-16T09:01:13;30.23;;;11.67;;
39772;SDS011;25451;51.960;6.250;2022-12-16T09:04:01;30.58;;;11.43;;
39772;SDS011;25451;51.960;6.250;2022-12-16T09:06:45;27.15;;;12.13;;
39772;SDS011;25451;51.960;6.250;2022-12-16T09:09:29;28.30;;;12.50;;
39772;SDS011;25451;51.960;6.250;2022-12-16T09:12:13;28.67;;;11.98;;
39772;SDS011;25451;51.960;6.250;2022-12-16T09:14:57;27.57;;;11.10;;
39772;SDS011;25451;51.960;6.250;2022-12-16T09:17:41;23.73;;;10.77;;
39772;SDS011;25451;51.960;6.250;2022-12-16T09:20:25;28.58;;;10.77;;
39772;SDS011;25451;51.960;6.250;2022-12-16T09:23:09;23.35;;;10.70;;
39772;SDS011;25451;51.960;6.250;2022-12-16T09:26:13;21.75;;;10.05;;
39772;SDS011;25451;51.960;6.250;2022-12-16T09:28:57;21.43;;;9.20;;
39772;SDS011;25451;51.960;6.250;2022-12-16T09:31:41;19.40;;;9.63;;
39772;SDS011;25451;51.960;6.250;2022-12-16T09:34:25;22.30;;;9.88;;
39772;SDS011;25451;51.960;6.250;2022-12-16T09:37:09;19.70;;;8.95;;
39772;SDS011;25451;51.960;6.250;2022-12-16T09:39:53;22.17;;;10.00;;
39772;SDS011;25451;51.960;6.250;2022-12-16T09:51:33;18.42;;;9.27;;
39772;SDS011;25451;51.960;6.250;2022-12-16T09:54:36;17.30;;;8.60;;
39772;SDS011;25451;51.960;6.250;2022-12-16T09:57:24;19.90;;;9.00;;
39772;SDS011;25451;51.960;6.250;2022-12-16T10:00:16;18.52;;;8.70;;
39772;SDS011;25451;51.960;6.250;2022-12-16T10:03:05;17.77;;;8.88;;
39772;SDS011;25451;51.960;6.250;2022-12-16T10:06:26;19.92;;;9.63;;
39772;SDS011;25451;51.960;6.250;2022-12-16T10:09:19;20.52;;;9.15;;
39772;SDS011;25451;51.960;6.250;2022-12-16T10:12:25;21.00;;;9.77;;
39772;SDS011;25451;51.960;6.250;2022-12-16T10:21:17;20.40;;;10.50;;
39772;SDS011;25451;51.960;6.250;2022-12-16T10:24:15;25.83;;;10.35;;
39772;SDS011;25451;51.960;6.250;2022-12-16T10:29:57;23.75;;;10.98;;
39772;SDS011;25451;51.960;6.250;2022-12-16T10:33:00;24.65;;;11.50;;
39772;SDS011;25451;51.960;6.250;2022-12-16T10:35:46;22.15;;;10.70;;
39772;SDS011;25451;51.960;6.250;2022-12-16T10:41:17;23.97;;;10.73;;
39772;SDS011;25451;51.960;6.250;2022-12-16T10:44:21;24.15;;;11.10;;
39772;SDS011;25451;51.960;6.250;2022-12-16T10:47:08;26.20;;;11.43;;
39772;SDS011;25451;51.960;6.250;2022-12-16T10:49:53;27.27;;;11.75;;
39772;SDS011;25451;51.960;6.250;2022-12-16T10:52:55;25.45;;;11.27;;
39772;SDS011;25451;51.960;6.250;2022-12-16T10:55:46;26.87;;;11.10;;
39772;SDS011;25451;51.960;6.250;2022-12-16T10:58:54;28.73;;;10.85;;
39772;SDS011;25451;51.960;6.250;2022-12-16T11:01:41;26.40;;;12.30;;
39772;SDS011;25451;51.960;6.250;2022-12-16T11:04:38;24.92;;;11.68;;
39772;SDS011;25451;51.960;6.250;2022-12-16T11:07:26;24.05;;;11.02;;
39772;SDS011;25451;51.960;6.250;2022-12-16T11:16:13;26.70;;;10.80;;
39772;SDS011;25451;51.960;6.250;2022-12-16T11:18:57;26.88;;;11.68;;
39772;SDS011;25451;51.960;6.250;2022-12-16T11:21:42;27.52;;;12.00;;
39772;SDS011;25451;51.960;6.250;2022-12-16T11:24:26;24.87;;;11.40;;
39772;SDS011;25451;51.960;6.250;2022-12-16T11:27:15;29.00;;;11.82;;
39772;SDS011;25451;51.960;6.250;2022-12-16T11:30:04;24.55;;;12.27;;
39772;SDS011;25451;51.960;6.250;2022-12-16T11:32:59;23.33;;;11.80;;
39772;SDS011;25451;51.960;6.250;2022-12-16T11:35:51;28.35;;;12.93;;
39772;SDS011;25451;51.960;6.250;2022-12-16T11:38:47;23.70;;;12.27;;
39772;SDS011;25451;51.960;6.250;2022-12-16T11:41:43;29.52;;;12.05;;
39772;SDS011;25451;51.960;6.250;2022-12-16T11:50:29;25.13;;;12.68;;
39772;SDS011;25451;51.960;6.250;2022-12-16T11:53:25;26.97;;;12.57;;
39772;SDS011;25451;51.960;6.250;2022-12-16T11:56:21;30.35;;;13.23;;
39772;SDS011;25451;51.960;6.250;2022-12-16T11:59:11;29.25;;;12.93;;
39772;SDS011;25451;51.960;6.250;2022-12-16T12:02:20;27.77;;;12.65;;
39772;SDS011;25451;51.960;6.250;2022-12-16T12:05:14;33.53;;;13.65;;
39772;SDS011;25451;51.960;6.250;2022-12-16T12:11:11;27.88;;;12.15;;
39772;SDS011;25451;51.960;6.250;2022-12-16T12:17:12;27.60;;;12.43;;
39772;SDS011;25451;51.960;6.250;2022-12-16T12:20:01;30.23;;;13.43;;
39772;SDS011;25451;51.960;6.250;2022-12-16T12:23:05;25.83;;;12.00;;
39772;SDS011;25451;51.960;6.250;2022-12-16T12:34:38;31.40;;;13.23;;
39772;SDS011;25451;51.960;6.250;2022-12-16T12:37:40;27.20;;;12.83;;
39772;SDS011;25451;51.960;6.250;2022-12-16T12:43:13;30.33;;;13.57;;
39772;SDS011;25451;51.960;6.250;2022-12-16T12:46:20;33.08;;;12.68;;
39772;SDS011;25451;51.960;6.250;2022-12-16T12:49:24;25.90;;;12.77;;
39772;SDS011;25451;51.960;6.250;2022-12-16T12:55:56;23.10;;;11.55;;
39772;SDS011;25451;51.960;6.250;2022-12-16T12:58:50;27.08;;;10.77;;
39772;SDS011;25451;51.960;6.250;2022-12-16T13:01:39;27.77;;;11.75;;
39772;SDS011;25451;51.960;6.250;2022-12-16T13:04:25;27.75;;;11.75;;
39772;SDS011;25451;51.960;6.250;2022-12-16T13:07:11;25.27;;;10.80;;
39772;SDS011;25451;51.960;6.250;2022-12-16T13:10:12;22.85;;;10.82;;
39772;SDS011;25451;51.960;6.250;2022-12-16T13:16:02;25.45;;;11.00;;
39772;SDS011;25451;51.960;6.250;2022-12-16T13:18:47;24.33;;;10.57;;
39772;SDS011;25451;51.960;6.250;2022-12-16T13:27:48;23.35;;;10.70;;
39772;SDS011;25451;51.960;6.250;2022-12-16T13:30:37;24.75;;;10.35;;
39772;SDS011;25451;51.960;6.250;2022-12-16T13:33:22;25.27;;;11.20;;
39772;SDS011;25451;51.960;6.250;2022-12-16T13:36:08;23.03;;;10.33;;
39772;SDS011;25451;51.960;6.250;2022-12-16T13:38:55;25.85;;;11.02;;
39772;SDS011;25451;51.960;6.250;2022-12-16T13:47:32;24.48;;;10.48;;
39772;SDS011;25451;51.960;6.250;2022-12-16T13:53:24;23.67;;;9.68;;
39772;SDS011;25451;51.960;6.250;2022-12-16T13:56:11;24.35;;;9.75;;
39772;SDS011;25451;51.960;6.250;2022-12-16T13:58:58;24.98;;;9.55;;
39772;SDS011;25451;51.960;6.250;2022-12-16T14:01:53;23.42;;;9.82;;
39772;SDS011;25451;51.960;6.250;2022-12-16T14:04:43;22.20;;;9.40;;
39772;SDS011;25451;51.960;6.250;2022-12-16T14:07:29;20.02;;;8.95;;
39772;SDS011;25451;51.960;6.250;2022-12-16T14:13:06;22.65;;;9.65;;
39772;SDS011;25451;51.960;6.250;2022-12-16T14:19:18;23.07;;;9.80;;
39772;SDS011;25451;51.960;6.250;2022-12-16T14:25:12;23.48;;;9.20;;
39772;SDS011;25451;51.960;6.250;2022-12-16T14:27:58;22.25;;;9.38;;
39772;SDS011;25451;51.960;6.250;2022-12-16T14:30:42;22.00;;;9.40;;
39772;SDS011;25451;51.960;6.250;2022-12-16T14:33:27;19.03;;;9.13;;
39772;SDS011;25451;51.960;6.250;2022-12-16T14:36:19;21.25;;;9.68;;
39772;SDS011;25451;51.960;6.250;2022-12-16T14:39:19;21.52;;;9.63;;
39772;SDS011;25451;51.960;6.250;2022-12-16T14:45:03;19.55;;;8.57;;
39772;SDS011;25451;51.960;6.250;2022-12-16T14:47:48;21.87;;;10.03;;
39772;SDS011;25451;51.960;6.250;2022-12-16T14:50:32;24.75;;;9.13;;
39772;SDS011;25451;51.960;6.250;2022-12-16T14:53:20;22.15;;;9.95;;
39772;SDS011;25451;51.960;6.250;2022-12-16T14:56:10;21.77;;;9.90;;
39772;SDS011;25451;51.960;6.250;2022-12-16T15:02:01;22.13;;;8.90;;
39772;SDS011;25451;51.960;6.250;2022-12-16T15:04:57;22.05;;;8.85;;
39772;SDS011;25451;51.960;6.250;2022-12-16T15:07:41;23.23;;;9.55;;
39772;SDS011;25451;51.960;6.250;2022-12-16T15:10:25;21.25;;;8.65;;
39772;SDS011;25451;51.960;6.250;2022-12-16T15:13:12;20.30;;;8.45;;
39772;SDS011;25451;51.960;6.250;2022-12-16T15:16:16;23.30;;;9.17;;
39772;SDS011;25451;51.960;6.250;2022-12-16T15:19:13;21.83;;;8.48;;
39772;SDS011;25451;51.960;6.250;2022-12-16T15:22:03;19.77;;;8.65;;
39772;SDS011;25451;51.960;6.250;2022-12-16T15:24:47;24.63;;;9.48;;
39772;SDS011;25451;51.960;6.250;2022-12-16T15:27:35;22.23;;;9.18;;
39772;SDS011;25451;51.960;6.250;2022-12-16T15:30:36;20.93;;;8.93;;
39772;SDS011;25451;51.960;6.250;2022-12-16T15:33:29;22.42;;;9.00;;
39772;SDS011;25451;51.960;6.250;2022-12-16T15:39:16;22.52;;;8.20;;
39772;SDS011;25451;51.960;6.250;2022-12-16T15:42:03;19.67;;;8.82;;
39772;SDS011;25451;51.960;6.250;2022-12-16T15:44:48;18.00;;;8.17;;
39772;SDS011;25451;51.960;6.250;2022-12-16T15:47:34;18.92;;;8.95;;
39772;SDS011;25451;51.960;6.250;2022-12-16T15:50:22;23.08;;;9.52;;
39772;SDS011;25451;51.960;6.250;2022-12-16T15:53:29;21.60;;;9.13;;
39772;SDS011;25451;51.960;6.250;2022-12-16T15:56:20;22.42;;;9.25;;
39772;SDS011;25451;51.960;6.250;2022-12-16T15:59:28;18.30;;;7.33;;
39772;SDS011;25451;51.960;6.250;2022-12-16T16:02:22;21.38;;;8.30;;
39772;SDS011;25451;51.960;6.250;2022-12-16T16:05:11;21.63;;;9.05;;
39772;SDS011;25451;51.960;6.250;2022-12-16T16:07:57;21.48;;;8.48;;
39772;SDS011;25451;51.960;6.250;2022-12-16T16:10:42;20.75;;;9.13;;
39772;SDS011;25451;51.960;6.250;2022-12-16T16:13:27;24.00;;;8.93;;
39772;SDS011;25451;51.960;6.250;2022-12-16T16:16:11;20.55;;;9.27;;
39772;SDS011;25451;51.960;6.250;2022-12-16T16:18:56;22.63;;;10.00;;
39772;SDS011;25451;51.960;6.250;2022-12-16T16:21:40;21.38;;;8.63;;
39772;SDS011;25451;51.960;6.250;2022-12-16T16:24:24;24.40;;;9.38;;
39772;SDS011;25451;51.960;6.250;2022-12-16T16:27:10;20.90;;;8.80;;
39772;SDS011;25451;51.960;6.250;2022-12-16T16:29:56;22.15;;;9.07;;
39772;SDS011;25451;51.960;6.250;2022-12-16T16:32:41;23.52;;;9.32;;
39772;SDS011;25451;51.960;6.250;2022-12-16T16:35:25;23.70;;;9.43;;
39772;SDS011;25451;51.960;6.250;2022-12-16T16:38:11;22.13;;;9.13;;
39772;SDS011;25451;51.960;6.250;2022-12-16T16:40:56;22.20;;;9.07;;
39772;SDS011;25451;51.960;6.250;2022-12-16T16:43:40;20.52;;;9.00;;
39772;SDS011;25451;51.960;6.250;2022-12-16T16:46:37;23.25;;;8.68;;
39772;SDS011;25451;51.960;6.250;2022-12-16T16:52:19;19.75;;;8.35;;
39772;SDS011;25451;51.960;6.250;2022-12-16T16:55:06;22.30;;;8.67;;
39772;SDS011;25451;51.960;6.250;2022-12-16T16:57:51;22.15;;;8.40;;
39772;SDS011;25451;51.960;6.250;2022-12-16T17:00:34;21.63;;;9.02;;
39772;SDS011;25451;51.960;6.250;2022-12-16T17:03:19;19.25;;;8.73;;
39772;SDS011;25451;51.960;6.250;2022-12-16T17:06:03;23.08;;;9.82;;
39772;SDS011;25451;51.960;6.250;2022-12-16T17:08:47;20.80;;;9.00;;
39772;SDS011;25451;51.960;6.250;2022-12-16T17:11:31;22.77;;;8.63;;
39772;SDS011;25451;51.960;6.250;2022-12-16T17:14:17;21.52;;;9.23;;
39772;SDS011;25451;51.960;6.250;2022-12-16T17:17:02;20.58;;;8.52;;
39772;SDS011;25451;51.960;6.250;2022-12-16T17:19:47;21.55;;;9.35;;
39772;SDS011;25451;51.960;6.250;2022-12-16T17:22:31;21.47;;;8.80;;
39772;SDS011;25451;51.960;6.250;2022-12-16T17:25:15;21.38;;;9.70;;
39772;SDS011;25451;51.960;6.250;2022-12-16T17:27:59;19.88;;;8.48;;
39772;SDS011;25451;51.960;6.250;2022-12-16T17:30:43;20.88;;;9.68;;
39772;SDS011;25451;51.960;6.250;2022-12-16T17:33:28;20.52;;;9.07;;
39772;SDS011;25451;51.960;6.250;2022-12-16T17:36:12;22.10;;;10.03;;
39772;SDS011;25451;51.960;6.250;2022-12-16T17:38:57;21.13;;;8.63;;
39772;SDS011;25451;51.960;6.250;2022-12-16T17:41:41;22.40;;;10.18;;
39772;SDS011;25451;51.960;6.250;2022-12-16T17:44:25;22.58;;;9.52;;
39772;SDS011;25451;51.960;6.250;2022-12-16T17:47:09;24.55;;;9.57;;
39772;SDS011;25451;51.960;6.250;2022-12-16T17:49:53;20.23;;;9.17;;
39772;SDS011;25451;51.960;6.250;2022-12-16T17:52:37;21.70;;;9.80;;
39772;SDS011;25451;51.960;6.250;2022-12-16T17:55:22;21.63;;;9.35;;
39772;SDS011;25451;51.960;6.250;2022-12-16T17:58:06;19.67;;;9.40;;